Time;durP1;ratioP1;P1;durP2;ratioP2;P2;SDS_P1;SDS_P2;PMS_P1;PMS_P2;Temp;Humidity;BMP_temperature;BMP_pressure;BME280_temperature;BME280_humidity;BME280_pressure;Samples;Min_cycle;Max_cycle;Signal;HPM_P1;HPM_P2
2023/09/09 00:01:35;;;;;;;0.00;0.00;;;;;;;;;;5075477;28;20047;-86
2023/09/09 00:04:03;;;;;;;0.00;0.00;;;;;;;;;;5073821;28;20395;-86
2023/09/09 00:06:29;;;;;;;0.00;0.00;;;;;;;;;;5057766;28;20040;-85
2023/09/09 00:08:55;;;;;;;0.00;0.00;;;;;;;;;;5073943;28;20128;-86
2023/09/09 00:11:21;;;;;;;0.00;0.00;;;;;;;;;;5073748;28;20506;-86
2023/09/09 00:13:47;;;;;;;0.00;0.00;;;;;;;;;;5073586;28;20556;-86
2023/09/09 00:16:13;;;;;;;0.00;0.00;;;;;;;;;;5074806;28;20476;-85
2023/09/09 00:18:39;;;;;;;0.00;0.00;;;;;;;;;;5073546;28;20055;-86
2023/09/09 00:21:06;;;;;;;0.00;0.00;;;;;;;;;;5072818;28;20044;-86
2023/09/09 00:23:32;;;;;;;0.00;0.00;;;;;;;;;;5073459;28;20250;-86
2023/09/09 00:25:59;;;;;;;0.00;0.00;;;;;;;;;;5073707;28;20341;-86
2023/09/09 00:28:25;;;;;;;0.25;0.10;;;;;;;;;;5073376;28;20040;-85
2023/09/09 00:30:51;;;;;;;0.00;0.00;;;;;;;;;;5075199;28;20507;-85
2023/09/09 00:33:18;;;;;;;0.00;0.00;;;;;;;;;;5073491;28;20044;-86
2023/09/09 00:35:44;;;;;;;0.00;0.00;;;;;;;;;;5056766;28;20093;-86
2023/09/09 00:38:11;;;;;;;0.00;0.00;;;;;;;;;;5073256;28;20045;-86
2023/09/09 00:40:37;;;;;;;0.00;0.00;;;;;;;;;;5056750;28;20033;-86
2023/09/09 00:43:03;;;;;;;0.00;0.00;;;;;;;;;;5073478;28;20044;-86
2023/09/09 00:45:30;;;;;;;0.00;0.00;;;;;;;;;;5073069;28;20048;-86
2023/09/09 00:47:56;;;;;;;0.00;0.00;;;;;;;;;;5074725;28;20043;-86
2023/09/09 00:50:23;;;;;;;0.00;0.00;;;;;;;;;;5056433;28;20041;-85
2023/09/09 00:52:49;;;;;;;0.00;0.00;;;;;;;;;;5056436;28;20087;-86
2023/09/09 00:55:15;;;;;;;0.00;0.00;;;;;;;;;;5072737;28;20040;-86
2023/09/09 00:57:41;;;;;;;1.45;1.00;;;;;;;;;;5072970;28;20055;-86
2023/09/09 01:00:11;;;;;;;0.00;0.00;;;;;;;;;;5074139;28;20058;-86
2023/09/09 01:02:40;;;;;;;0.00;0.00;;;;;;;;;;5074429;28;20082;-86
2023/09/09 01:05:07;;;;;;;0.25;0.08;;;;;;;;;;5055939;28;20499;-86
2023/09/09 01:07:44;;;;;;;0.00;0.00;;;;;;;;;;5072719;28;20041;-86
2023/09/09 01:10:12;;;;;;;0.00;0.00;;;;;;;;;;5072336;28;20044;-86
2023/09/09 01:12:38;;;;;;;0.00;0.00;;;;;;;;;;5074093;28;20098;-86
2023/09/09 01:15:05;;;;;;;0.00;0.00;;;;;;;;;;5073646;28;20064;-86
2023/09/09 01:17:32;;;;;;;0.00;0.00;;;;;;;;;;5072684;28;20036;-86
2023/09/09 01:19:59;;;;;;;0.00;0.00;;;;;;;;;;5072154;28;20463;-86
2023/09/09 01:22:25;;;;;;;0.00;0.00;;;;;;;;;;5073804;28;20055;-86
2023/09/09 01:24:51;;;;;;;0.00;0.00;;;;;;;;;;5073526;28;20036;-86
2023/09/09 01:27:17;;;;;;;0.00;0.00;;;;;;;;;;5077613;28;20072;-92
2023/09/09 01:29:43;;;;;;;0.20;0.00;;;;;;;;;;5075187;28;20407;-86
2023/09/09 01:32:09;;;;;;;0.00;0.00;;;;;;;;;;5073901;28;20067;-87
2023/09/09 01:34:34;;;;;;;0.00;0.00;;;;;;;;;;5074311;28;20044;-86
2023/09/09 01:37:00;;;;;;;0.00;0.00;;;;;;;;;;5073320;28;20040;-86
2023/09/09 01:39:27;;;;;;;0.00;0.00;;;;;;;;;;5073284;28;20111;-86
2023/09/09 01:41:53;;;;;;;0.00;0.00;;;;;;;;;;5072017;28;20098;-86
2023/09/09 01:44:21;;;;;;;0.00;0.00;;;;;;;;;;5072932;28;20434;-86
2023/09/09 01:46:47;;;;;;;0.00;0.00;;;;;;;;;;5072009;28;20090;-86
2023/09/09 01:49:13;;;;;;;0.00;0.00;;;;;;;;;;5071601;28;20511;-86
2023/09/09 01:51:39;;;;;;;0.00;0.00;;;;;;;;;;5071940;28;20055;-86
2023/09/09 01:54:05;;;;;;;0.00;0.00;;;;;;;;;;5071853;28;20047;-86
2023/09/09 01:56:31;;;;;;;0.00;0.00;;;;;;;;;;5054994;28;20058;-85
2023/09/09 01:58:57;;;;;;;0.00;0.00;;;;;;;;;;5072827;28;20134;-86
2023/09/09 02:01:24;;;;;;;0.00;0.00;;;;;;;;;;5071831;28;20040;-86
2023/09/09 02:03:50;;;;;;;0.00;0.00;;;;;;;;;;5071391;28;20407;-86
2023/09/09 02:06:17;;;;;;;0.00;0.00;;;;;;;;;;5055169;28;20040;-86
2023/09/09 02:08:43;;;;;;;0.00;0.00;;;;;;;;;;5071468;28;20056;-85
2023/09/09 02:11:09;;;;;;;0.00;0.00;;;;;;;;;;5071129;28;20040;-86
2023/09/09 02:13:36;;;;;;;0.00;0.00;;;;;;;;;;5072710;28;20391;-86
2023/09/09 02:16:06;;;;;;;0.00;0.00;;;;;;;;;;5072361;28;20465;-85
2023/09/09 02:18:31;;;;;;;0.00;0.00;;;;;;;;;;5054685;28;20049;-85
2023/09/09 02:20:58;;;;;;;0.00;0.00;;;;;;;;;;5071343;28;20063;-86
2023/09/09 02:23:24;;;;;;;0.00;0.00;;;;;;;;;;5072588;28;20476;-86
2023/09/09 02:25:50;;;;;;;0.00;0.00;;;;;;;;;;5071154;28;20338;-85
2023/09/09 02:28:18;;;;;;;0.00;0.00;;;;;;;;;;5071408;28;20078;-86
2023/09/09 02:30:44;;;;;;;0.00;0.00;;;;;;;;;;5070945;28;20089;-86
2023/09/09 02:33:10;;;;;;;0.00;0.00;;;;;;;;;;5072528;28;20052;-86
2023/09/09 02:35:41;;;;;;;0.00;0.00;;;;;;;;;;5070934;28;20497;-86
2023/09/09 02:38:07;;;;;;;0.00;0.00;;;;;;;;;;5071325;28;20399;-86
2023/09/09 02:40:33;;;;;;;0.00;0.00;;;;;;;;;;5072291;28;20044;-86
2023/09/09 02:42:59;;;;;;;0.00;0.00;;;;;;;;;;5070809;28;20047;-86
2023/09/09 02:45:25;;;;;;;0.00;0.00;;;;;;;;;;5054041;28;20044;-85
2023/09/09 02:47:51;;;;;;;0.00;0.00;;;;;;;;;;5072495;28;20137;-86
2023/09/09 02:50:18;;;;;;;0.00;0.00;;;;;;;;;;5071071;28;20045;-85
2023/09/09 02:52:44;;;;;;;0.00;0.00;;;;;;;;;;5071333;28;20442;-86
2023/09/09 02:55:10;;;;;;;0.00;0.00;;;;;;;;;;5072304;28;20045;-85
2023/09/09 02:57:36;;;;;;;0.00;0.00;;;;;;;;;;5071154;28;20090;-86
2023/09/09 03:00:05;;;;;;;0.00;0.00;;;;;;;;;;5054022;28;20139;-86
2023/09/09 03:02:32;;;;;;;0.00;0.00;;;;;;;;;;5072572;28;20040;-86
2023/09/09 03:04:58;;;;;;;0.00;0.00;;;;;;;;;;5054006;28;20110;-86
2023/09/09 03:07:24;;;;;;;0.03;0.03;;;;;;;;;;5072593;28;20043;-86
2023/09/09 03:09:50;;;;;;;0.00;0.00;;;;;;;;;;5070792;28;20040;-86
2023/09/09 03:12:20;;;;;;;0.00;0.00;;;;;;;;;;5054453;28;20503;-86
2023/09/09 03:14:47;;;;;;;0.00;0.00;;;;;;;;;;5070590;28;20048;-85
2023/09/09 03:17:13;;;;;;;0.00;0.00;;;;;;;;;;5070765;28;20048;-86
2023/09/09 03:19:39;;;;;;;0.00;0.00;;;;;;;;;;5070612;28;20146;-85
2023/09/09 03:22:06;;;;;;;0.00;0.00;;;;;;;;;;5072334;28;20174;-85
2023/09/09 03:24:32;;;;;;;0.00;0.00;;;;;;;;;;5071119;28;20046;-85
2023/09/09 03:26:58;;;;;;;0.00;0.00;;;;;;;;;;5071199;28;20123;-85
2023/09/09 03:29:24;;;;;;;0.00;0.00;;;;;;;;;;5070957;28;20063;-86
2023/09/09 03:31:50;;;;;;;0.00;0.00;;;;;;;;;;5070707;28;20051;-86
2023/09/09 03:34:16;;;;;;;0.00;0.00;;;;;;;;;;5072369;28;20152;-87
2023/09/09 03:36:42;;;;;;;0.00;0.00;;;;;;;;;;5070734;28;20521;-86
2023/09/09 03:39:09;;;;;;;0.00;0.00;;;;;;;;;;5054494;28;20047;-86
2023/09/09 03:41:35;;;;;;;0.00;0.00;;;;;;;;;;5070785;28;20033;-86
2023/09/09 03:44:01;;;;;;;0.00;0.00;;;;;;;;;;5070832;28;20033;-86
2023/09/09 03:46:28;;;;;;;0.00;0.00;;;;;;;;;;5072119;28;20440;-87
2023/09/09 03:48:54;;;;;;;0.00;0.00;;;;;;;;;;5071120;28;20041;-86
2023/09/09 03:51:20;;;;;;;0.00;0.00;;;;;;;;;;5072390;28;20052;-86
2023/09/09 03:53:46;;;;;;;0.00;0.00;;;;;;;;;;5054508;28;20410;-86
2023/09/09 03:56:12;;;;;;;0.00;0.00;;;;;;;;;;5056815;28;20063;-86
2023/09/09 03:58:38;;;;;;;0.00;0.00;;;;;;;;;;5075597;28;20504;-86
2023/09/09 04:01:05;;;;;;;0.00;0.00;;;;;;;;;;5075474;28;20036;-86
2023/09/09 04:03:33;;;;;;;0.00;0.00;;;;;;;;;;5057587;28;20041;-86
2023/09/09 04:06:00;;;;;;;0.00;0.00;;;;;;;;;;5075042;28;20094;-86
2023/09/09 04:08:28;;;;;;;0.00;0.00;;;;;;;;;;5074024;28;20479;-86
2023/09/09 04:10:55;;;;;;;0.00;0.00;;;;;;;;;;5073834;28;20066;-85
2023/09/09 04:13:21;;;;;;;0.00;0.00;;;;;;;;;;5075230;28;20044;-85
2023/09/09 04:15:47;;;;;;;0.08;0.03;;;;;;;;;;5073648;28;20075;-86
2023/09/09 04:18:12;;;;;;;0.00;0.00;;;;;;;;;;5073570;28;20045;-86
2023/09/09 04:20:38;;;;;;;0.00;0.00;;;;;;;;;;5056868;28;20036;-86
2023/09/09 04:23:05;;;;;;;0.00;0.00;;;;;;;;;;5075081;28;20495;-85
2023/09/09 04:25:30;;;;;;;0.00;0.00;;;;;;;;;;5073581;28;20166;-86
2023/09/09 04:27:56;;;;;;;0.00;0.00;;;;;;;;;;5074846;28;20111;-86
2023/09/09 04:30:22;;;;;;;0.32;0.10;;;;;;;;;;5073198;28;20036;-86
2023/09/09 04:32:48;;;;;;;0.00;0.00;;;;;;;;;;5073345;28;20047;-86
2023/09/09 04:35:14;;;;;;;0.00;0.00;;;;;;;;;;5074967;28;20036;-86
2023/09/09 04:37:40;;;;;;;0.00;0.00;;;;;;;;;;5073047;28;20036;-86
2023/09/09 04:40:10;;;;;;;0.00;0.00;;;;;;;;;;5073314;28;20041;-86
2023/09/09 04:42:36;;;;;;;0.08;0.00;;;;;;;;;;5056484;28;20044;-88
2023/09/09 04:45:03;;;;;;;0.00;0.00;;;;;;;;;;5075113;28;20056;-85
2023/09/09 04:47:29;;;;;;;0.00;0.00;;;;;;;;;;5056449;28;20052;-86
2023/09/09 04:49:56;;;;;;;0.00;0.00;;;;;;;;;;5072956;28;20072;-87
2023/09/09 04:52:22;;;;;;;0.00;0.00;;;;;;;;;;5073104;28;20040;-87
2023/09/09 04:54:49;;;;;;;0.00;0.00;;;;;;;;;;5073208;28;20048;-86
2023/09/09 04:57:15;;;;;;;0.00;0.00;;;;;;;;;;5072654;28;20132;-86
2023/09/09 04:59:41;;;;;;;0.00;0.00;;;;;;;;;;5056041;28;20036;-86
2023/09/09 05:02:07;;;;;;;0.00;0.00;;;;;;;;;;5072711;28;20047;-86
2023/09/09 05:04:33;;;;;;;0.00;0.00;;;;;;;;;;5072722;28;20076;-86
2023/09/09 05:07:00;;;;;;;0.00;0.00;;;;;;;;;;5071902;28;20488;-86
2023/09/09 05:09:27;;;;;;;0.00;0.00;;;;;;;;;;5072775;28;20040;-86
2023/09/09 05:11:53;;;;;;;0.00;0.00;;;;;;;;;;5073783;28;20044;-86
2023/09/09 05:14:19;;;;;;;0.00;0.00;;;;;;;;;;5056016;28;20040;-86
2023/09/09 05:16:45;;;;;;;0.00;0.00;;;;;;;;;;5073921;28;20092;-86
2023/09/09 05:19:11;;;;;;;0.28;0.10;;;;;;;;;;5074189;28;20233;-85
2023/09/09 05:21:37;;;;;;;0.00;0.00;;;;;;;;;;5072219;28;20368;-85
2023/09/09 05:24:03;;;;;;;0.00;0.00;;;;;;;;;;5072190;28;20032;-85
2023/09/09 05:26:29;;;;;;;0.00;0.00;;;;;;;;;;5073548;28;20475;-84
2023/09/09 05:28:55;;;;;;;0.00;0.00;;;;;;;;;;5073773;28;20040;-85
2023/09/09 05:31:21;;;;;;;0.00;0.00;;;;;;;;;;5072082;28;20049;-85
2023/09/09 05:33:47;;;;;;;0.00;0.00;;;;;;;;;;5072419;28;20404;-85
2023/09/09 05:36:12;;;;;;;0.00;0.00;;;;;;;;;;5072478;28;20036;-86
2023/09/09 05:38:38;;;;;;;0.00;0.00;;;;;;;;;;5073522;28;20043;-85
2023/09/09 05:41:04;;;;;;;0.00;0.00;;;;;;;;;;5072563;28;20529;-85
2023/09/09 05:43:30;;;;;;;0.00;0.00;;;;;;;;;;5072518;28;20032;-86
2023/09/09 05:45:57;;;;;;;0.00;0.00;;;;;;;;;;5073703;28;20123;-84
2023/09/09 05:48:23;;;;;;;0.00;0.00;;;;;;;;;;5071911;28;20042;-85
2023/09/09 05:50:49;;;;;;;0.00;0.00;;;;;;;;;;5072116;28;20037;-85
2023/09/09 05:53:15;;;;;;;0.00;0.00;;;;;;;;;;5073039;28;20163;-83
2023/09/09 05:55:41;;;;;;;0.20;0.03;;;;;;;;;;5072584;28;20045;-90
2023/09/09 05:58:07;;;;;;;0.00;0.00;;;;;;;;;;5055399;28;20040;-85
2023/09/09 06:00:33;;;;;;;0.00;0.00;;;;;;;;;;5071937;28;20491;-85
2023/09/09 06:02:59;;;;;;;0.00;0.00;;;;;;;;;;5071622;28;20527;-86
2023/09/09 06:05:25;;;;;;;0.00;0.00;;;;;;;;;;5072001;28;20044;-85
2023/09/09 06:07:51;;;;;;;0.08;0.00;;;;;;;;;;5072803;28;20076;-84
2023/09/09 06:10:17;;;;;;;0.00;0.00;;;;;;;;;;5072959;28;20044;-85
2023/09/09 06:12:43;;;;;;;0.00;0.00;;;;;;;;;;5071446;28;20051;-84
2023/09/09 06:15:09;;;;;;;0.00;0.00;;;;;;;;;;5072742;28;20048;-85
2023/09/09 06:17:39;;;;;;;0.00;0.00;;;;;;;;;;5070403;28;20044;-85
2023/09/09 06:20:05;;;;;;;0.13;0.05;;;;;;;;;;5071995;28;20066;-85
2023/09/09 06:22:32;;;;;;;0.00;0.00;;;;;;;;;;5071311;28;20051;-86
2023/09/09 06:24:58;;;;;;;0.00;0.00;;;;;;;;;;5073781;28;20090;-84
2023/09/09 06:27:24;;;;;;;0.00;0.00;;;;;;;;;;5071676;28;20054;-87
2023/09/09 06:29:50;;;;;;;0.00;0.00;;;;;;;;;;5072948;28;20099;-86
2023/09/09 06:32:16;;;;;;;0.00;0.00;;;;;;;;;;5072671;28;20040;-87
2023/09/09 06:34:42;;;;;;;0.00;0.00;;;;;;;;;;5072683;28;20104;-86
2023/09/09 06:37:09;;;;;;;0.00;0.00;;;;;;;;;;5072281;28;20037;-86
2023/09/09 06:39:35;;;;;;;0.00;0.00;;;;;;;;;;5071088;28;20040;-86
2023/09/09 06:42:01;;;;;;;0.00;0.00;;;;;;;;;;5074659;28;20472;-87
2023/09/09 06:44:27;;;;;;;0.00;0.00;;;;;;;;;;5072853;28;20094;-87
2023/09/09 06:46:53;;;;;;;0.00;0.00;;;;;;;;;;5072074;28;20055;-91
2023/09/09 06:49:19;;;;;;;0.00;0.00;;;;;;;;;;5075243;28;20036;-87
2023/09/09 06:51:45;;;;;;;0.00;0.00;;;;;;;;;;5073050;28;20045;-90
2023/09/09 06:54:11;;;;;;;0.00;0.00;;;;;;;;;;5071391;28;20581;-86
2023/09/09 06:56:37;;;;;;;0.00;0.00;;;;;;;;;;5071293;28;20044;-87
2023/09/09 06:59:03;;;;;;;0.00;0.00;;;;;;;;;;5072579;28;20101;-87
2023/09/09 07:01:29;;;;;;;0.00;0.00;;;;;;;;;;5071510;28;20047;-86
2023/09/09 07:03:55;;;;;;;0.00;0.00;;;;;;;;;;5072160;28;20043;-86
2023/09/09 07:06:21;;;;;;;0.00;0.00;;;;;;;;;;5072366;28;20360;-86
2023/09/09 07:08:49;;;;;;;0.00;0.00;;;;;;;;;;5053934;28;20483;-87
2023/09/09 07:11:18;;;;;;;0.00;0.00;;;;;;;;;;5072578;28;20049;-88
2023/09/09 07:13:44;;;;;;;0.00;0.00;;;;;;;;;;5072456;28;20051;-89
2023/09/09 07:16:12;;;;;;;0.00;0.00;;;;;;;;;;5072629;28;20053;-86
2023/09/09 07:18:37;;;;;;;0.00;0.00;;;;;;;;;;5070753;28;20496;-86
2023/09/09 07:21:03;;;;;;;0.00;0.00;;;;;;;;;;5070824;28;20041;-84
2023/09/09 07:23:30;;;;;;;0.00;0.00;;;;;;;;;;5054044;28;20476;-85
2023/09/09 07:25:56;;;;;;;0.00;0.00;;;;;;;;;;5070814;28;20123;-85
2023/09/09 07:28:25;;;;;;;0.00;0.00;;;;;;;;;;5071921;28;20068;-85
2023/09/09 07:30:51;;;;;;;0.00;0.00;;;;;;;;;;5075867;28;20117;-86
2023/09/09 07:33:18;;;;;;;0.00;0.00;;;;;;;;;;5074267;28;20040;-85
2023/09/09 07:35:44;;;;;;;0.00;0.00;;;;;;;;;;5058275;28;20154;-85
2023/09/09 07:38:10;;;;;;;0.00;0.00;;;;;;;;;;5075944;28;20048;-90
2023/09/09 07:40:37;;;;;;;0.00;0.00;;;;;;;;;;5058116;28;20064;-85
2023/09/09 07:43:04;;;;;;;0.00;0.00;;;;;;;;;;5074619;28;20058;-85
2023/09/09 07:45:30;;;;;;;0.22;0.10;;;;;;;;;;5081884;28;20340;-85
2023/09/09 07:47:56;;;;;;;0.10;0.00;;;;;;;;;;5070465;28;20131;-85
2023/09/09 07:50:22;;;;;;;0.00;0.00;;;;;;;;;;5075523;28;20460;-87
2023/09/09 07:52:48;;;;;;;0.00;0.00;;;;;;;;;;5082810;28;20047;-84
2023/09/09 07:55:14;;;;;;;0.00;0.00;;;;;;;;;;5094705;28;20047;-85
2023/09/09 07:57:40;;;;;;;0.00;0.00;;;;;;;;;;5094077;28;20046;-84
2023/09/09 08:00:07;;;;;;;0.00;0.00;;;;;;;;;;5095905;28;20036;-84
2023/09/09 08:02:35;;;;;;;0.00;0.00;;;;;;;;;;5094058;28;20044;-85
2023/09/09 08:05:01;;;;;;;0.00;0.00;;;;;;;;;;5095533;28;20413;-85
2023/09/09 08:07:27;;;;;;;0.00;0.00;;;;;;;;;;5077990;28;20390;-84
2023/09/09 08:09:53;;;;;;;0.00;0.00;;;;;;;;;;5094280;28;20400;-85
2023/09/09 08:12:19;;;;;;;0.00;0.00;;;;;;;;;;5094665;28;20063;-85
2023/09/09 08:14:47;;;;;;;0.00;0.00;;;;;;;;;;5093778;28;20530;-85
2023/09/09 08:17:13;;;;;;;0.00;0.00;;;;;;;;;;5095501;28;20059;-84
2023/09/09 08:19:39;;;;;;;0.00;0.00;;;;;;;;;;5095194;28;20119;-85
2023/09/09 08:22:05;;;;;;;0.00;0.00;;;;;;;;;;5077545;28;20072;-85
2023/09/09 08:24:33;;;;;;;0.00;0.00;;;;;;;;;;5094156;28;20079;-85
2023/09/09 08:26:59;;;;;;;0.00;0.00;;;;;;;;;;5094297;28;20063;-86
2023/09/09 08:29:25;;;;;;;0.00;0.00;;;;;;;;;;5092513;28;20074;-84
2023/09/09 08:31:51;;;;;;;0.00;0.00;;;;;;;;;;5088676;28;20098;-84
2023/09/09 08:34:17;;;;;;;0.00;0.00;;;;;;;;;;5081875;28;20127;-84
2023/09/09 08:36:43;;;;;;;0.00;0.00;;;;;;;;;;5074826;28;20036;-84
2023/09/09 08:39:11;;;;;;;0.00;0.00;;;;;;;;;;5073123;28;20189;-84
2023/09/09 08:41:44;;;;;;;0.00;0.00;;;;;;;;;;5074256;28;20040;-83
2023/09/09 08:44:13;;;;;;;0.00;0.00;;;;;;;;;;5073206;28;20067;-85
2023/09/09 08:46:39;;;;;;;0.00;0.00;;;;;;;;;;5074561;28;20567;-84
2023/09/09 08:49:05;;;;;;;0.00;0.00;;;;;;;;;;5073222;28;20080;-84
2023/09/09 08:51:41;;;;;;;0.00;0.00;;;;;;;;;;5073225;28;20036;-84
2023/09/09 08:54:08;;;;;;;0.00;0.00;;;;;;;;;;5072818;28;20090;-84
2023/09/09 08:56:35;;;;;;;0.00;0.00;;;;;;;;;;5056977;28;20139;-84
2023/09/09 08:59:01;;;;;;;0.00;0.00;;;;;;;;;;5072607;28;20037;-84
2023/09/09 09:01:27;;;;;;;0.00;0.00;;;;;;;;;;5072884;28;20068;-84
2023/09/09 09:03:54;;;;;;;0.00;0.00;;;;;;;;;;5073833;28;20079;-84
2023/09/09 09:06:20;;;;;;;0.00;0.00;;;;;;;;;;5072902;28;20048;-84
2023/09/09 09:08:46;;;;;;;0.00;0.00;;;;;;;;;;5072584;28;20340;-83
2023/09/09 09:11:13;;;;;;;0.00;0.00;;;;;;;;;;5072553;28;20040;-84
2023/09/09 09:13:38;;;;;;;0.00;0.00;;;;;;;;;;5072470;28;20107;-84
2023/09/09 09:16:05;;;;;;;0.00;0.00;;;;;;;;;;5073491;28;20063;-84
2023/09/09 09:18:31;;;;;;;0.00;0.00;;;;;;;;;;5073811;28;20074;-84
2023/09/09 09:21:06;;;;;;;0.00;0.00;;;;;;;;;;5072270;28;20037;-84
2023/09/09 09:23:32;;;;;;;0.00;0.00;;;;;;;;;;5073574;28;20503;-85
2023/09/09 09:25:58;;;;;;;0.00;0.00;;;;;;;;;;5073474;28;20040;-84
2023/09/09 09:28:28;;;;;;;0.00;0.00;;;;;;;;;;5073421;28;20051;-84
2023/09/09 09:30:54;;;;;;;0.00;0.00;;;;;;;;;;5073494;28;20446;-84
2023/09/09 09:33:24;;;;;;;0.00;0.00;;;;;;;;;;5073364;28;20037;-85
2023/09/09 09:35:51;;;;;;;0.00;0.00;;;;;;;;;;5072442;28;20052;-84
2023/09/09 09:38:17;;;;;;;0.00;0.00;;;;;;;;;;5072034;28;20315;-84
2023/09/09 09:40:44;;;;;;;0.00;0.00;;;;;;;;;;5071524;28;20075;-84
2023/09/09 09:43:19;;;;;;;0.00;0.00;;;;;;;;;;5073405;28;20040;-84
2023/09/09 09:45:45;;;;;;;0.00;0.00;;;;;;;;;;5073176;28;20040;-85
2023/09/09 09:48:11;;;;;;;0.00;0.00;;;;;;;;;;5073385;28;20045;-85
2023/09/09 09:50:37;;;;;;;0.00;0.00;;;;;;;;;;5071519;28;20545;-89
2023/09/09 09:53:08;;;;;;;0.00;0.00;;;;;;;;;;5072993;28;20060;-87
2023/09/09 09:55:36;;;;;;;0.00;0.00;;;;;;;;;;5055696;28;20495;-83
2023/09/09 09:58:03;;;;;;;0.00;0.00;;;;;;;;;;5073048;28;20129;-84
2023/09/09 10:00:29;;;;;;;0.00;0.00;;;;;;;;;;5071427;28;20037;-85
2023/09/09 10:02:56;;;;;;;0.00;0.00;;;;;;;;;;5071872;28;20128;-86
2023/09/09 10:05:23;;;;;;;0.00;0.00;;;;;;;;;;5072037;28;20090;-85
2023/09/09 10:07:53;;;;;;;0.00;0.00;;;;;;;;;;5072134;28;20332;-84
2023/09/09 10:10:22;;;;;;;0.00;0.00;;;;;;;;;;5054839;28;20056;-85
2023/09/09 10:13:02;;;;;;;0.00;0.00;;;;;;;;;;5071660;28;20044;-85
2023/09/09 10:15:30;;;;;;;0.00;0.00;;;;;;;;;;5071230;28;20092;-86
2023/09/09 10:17:56;;;;;;;0.00;0.00;;;;;;;;;;5072843;28;20048;-85
2023/09/09 10:20:24;;;;;;;0.00;0.00;;;;;;;;;;5071713;28;20166;-85
2023/09/09 10:22:53;;;;;;;0.00;0.00;;;;;;;;;;5071934;28;20052;-87
2023/09/09 10:25:20;;;;;;;0.00;0.00;;;;;;;;;;5055269;28;20044;-88
2023/09/09 10:27:47;;;;;;;0.00;0.00;;;;;;;;;;5072726;28;20156;-85
2023/09/09 10:30:13;;;;;;;0.00;0.00;;;;;;;;;;5072806;28;20044;-86
2023/09/09 10:32:40;;;;;;;0.00;0.00;;;;;;;;;;5072903;28;20037;-91
2023/09/09 10:35:07;;;;;;;0.00;0.00;;;;;;;;;;5073023;28;20044;-84
2023/09/09 10:37:34;;;;;;;0.00;0.00;;;;;;;;;;5072583;28;20040;-86
2023/09/09 10:40:02;;;;;;;0.00;0.00;;;;;;;;;;5070776;28;20464;-86
2023/09/09 10:42:29;;;;;;;0.00;0.00;;;;;;;;;;5073907;28;20033;-87
2023/09/09 10:44:55;;;;;;;0.22;0.00;;;;;;;;;;5072446;28;20098;-84
2023/09/09 10:47:21;;;;;;;0.00;0.00;;;;;;;;;;5073399;28;20044;-89
2023/09/09 10:49:46;;;;;;;0.00;0.00;;;;;;;;;;5055312;28;20135;-86
2023/09/09 10:52:32;;;;;;;0.00;0.00;;;;;;;;;;5071133;28;20106;-86
2023/09/09 10:55:13;;;;;;;0.00;0.00;;;;;;;;;;5072488;28;20048;-85
2023/09/09 10:57:39;;;;;;;0.00;0.00;;;;;;;;;;5071519;28;20147;-86
2023/09/09 11:00:06;;;;;;;0.00;0.00;;;;;;;;;;5054550;28;20364;-86
2023/09/09 11:02:43;;;;;;;0.00;0.00;;;;;;;;;;5071238;28;20090;-85
2023/09/09 11:05:13;;;;;;;0.00;0.00;;;;;;;;;;5074778;28;20505;-85
2023/09/09 11:07:42;;;;;;;0.00;0.00;;;;;;;;;;5076267;28;20059;-86
2023/09/09 11:10:09;;;;;;;0.00;0.00;;;;;;;;;;5076642;28;20044;-85
2023/09/09 11:12:35;;;;;;;0.00;0.00;;;;;;;;;;5076866;28;20048;-87
2023/09/09 11:15:08;;;;;;;0.00;0.00;;;;;;;;;;5075261;28;20518;-87
2023/09/09 11:17:37;;;;;;;0.00;0.00;;;;;;;;;;5076936;28;20048;-86
2023/09/09 11:20:04;;;;;;;0.00;0.00;;;;;;;;;;5077330;28;20075;-87
2023/09/09 11:22:30;;;;;;;0.00;0.00;;;;;;;;;;5076455;28;20036;-86
2023/09/09 11:24:59;;;;;;;0.00;0.00;;;;;;;;;;5075012;28;20048;-88
2023/09/09 11:27:25;;;;;;;0.00;0.00;;;;;;;;;;5059510;28;20040;-86
2023/09/09 11:29:52;;;;;;;0.00;0.00;;;;;;;;;;5075860;28;20175;-87
2023/09/09 11:32:28;;;;;;;0.00;0.00;;;;;;;;;;5058520;28;20112;-89
2023/09/09 11:34:54;;;;;;;0.00;0.00;;;;;;;;;;5075881;28;20054;-87
2023/09/09 11:37:21;;;;;;;0.00;0.00;;;;;;;;;;5074276;28;20086;-86
2023/09/09 11:39:47;;;;;;;0.00;0.00;;;;;;;;;;5074924;28;20045;-87
2023/09/09 11:42:13;;;;;;;0.00;0.00;;;;;;;;;;5074497;28;20136;-87
2023/09/09 11:44:41;;;;;;;0.00;0.00;;;;;;;;;;5074188;28;20373;-88
2023/09/09 11:47:07;;;;;;;0.00;0.00;;;;;;;;;;5074199;28;20040;-86
2023/09/09 11:49:33;;;;;;;0.00;0.00;;;;;;;;;;5075422;28;20456;-85
2023/09/09 11:52:00;;;;;;;0.00;0.00;;;;;;;;;;5074254;28;20044;-86
2023/09/09 11:54:29;;;;;;;0.00;0.00;;;;;;;;;;5075911;28;20037;-93
2023/09/09 11:57:04;;;;;;;0.00;0.00;;;;;;;;;;5074607;28;20400;-88
2023/09/09 11:59:30;;;;;;;0.00;0.00;;;;;;;;;;5058609;28;20040;-88
2023/09/09 12:01:56;;;;;;;0.00;0.00;;;;;;;;;;5075889;28;20399;-85
2023/09/09 12:04:22;;;;;;;0.00;0.00;;;;;;;;;;5075051;28;20047;-86
2023/09/09 12:06:50;;;;;;;0.00;0.00;;;;;;;;;;5056902;28;20036;-86
2023/09/09 12:09:17;;;;;;;0.00;0.00;;;;;;;;;;5073831;28;20036;-86
2023/09/09 12:11:43;;;;;;;0.00;0.00;;;;;;;;;;5057095;28;20045;-85
2023/09/09 12:14:10;;;;;;;0.00;0.00;;;;;;;;;;5073877;28;20037;-86
2023/09/09 12:16:36;;;;;;;0.00;0.00;;;;;;;;;;5073361;28;20121;-86
2023/09/09 12:19:02;;;;;;;0.00;0.00;;;;;;;;;;5074875;28;20052;-86
2023/09/09 12:21:29;;;;;;;0.00;0.00;;;;;;;;;;5073431;28;20047;-86
2023/09/09 12:23:59;;;;;;;0.00;0.00;;;;;;;;;;5074246;28;20113;-86
2023/09/09 12:26:25;;;;;;;0.00;0.00;;;;;;;;;;5073190;28;20098;-86
2023/09/09 12:29:05;;;;;;;0.00;0.00;;;;;;;;;;5073493;28;20040;-86
2023/09/09 12:31:33;;;;;;;0.00;0.00;;;;;;;;;;5073152;28;20044;-86
2023/09/09 12:33:59;;;;;;;0.00;0.00;;;;;;;;;;5074934;28;20116;-86
2023/09/09 12:36:25;;;;;;;0.00;0.00;;;;;;;;;;5075902;28;20056;-92
2023/09/09 12:38:51;;;;;;;0.00;0.00;;;;;;;;;;5091376;28;20066;-93
2023/09/09 12:41:21;;;;;;;0.00;0.00;;;;;;;;;;5092466;28;20028;-90
2023/09/09 12:43:53;;;;;;;0.00;0.00;;;;;;;;;;5081874;28;20119;-94
2023/09/09 12:46:19;;;;;;;0.00;0.00;;;;;;;;;;5087483;28;20058;-90
2023/09/09 12:59:09;;;;;;;0.00;0.00;;;;;;;;;;5229698;22;20057;-87
2023/09/09 13:01:35;;;;;;;0.00;0.00;;;;;;;;;;5035772;28;20045;-88
2023/09/09 13:04:01;;;;;;;0.00;0.00;;;;;;;;;;5035149;28;20554;-89
2023/09/09 13:06:27;;;;;;;0.00;0.00;;;;;;;;;;5036803;28;20041;-88
2023/09/09 13:08:53;;;;;;;0.00;0.00;;;;;;;;;;5033545;28;20052;-84
2023/09/09 13:11:19;;;;;;;0.00;0.00;;;;;;;;;;5034595;28;20037;-85
2023/09/09 13:13:45;;;;;;;0.00;0.00;;;;;;;;;;5033096;28;20535;-85
2023/09/09 13:16:12;;;;;;;0.00;0.00;;;;;;;;;;5033954;28;20041;-84
2023/09/09 13:18:38;;;;;;;0.10;0.00;;;;;;;;;;5032560;28;20509;-83
2023/09/09 13:21:04;;;;;;;0.00;0.00;;;;;;;;;;5032792;28;20049;-84
2023/09/09 13:23:30;;;;;;;0.00;0.00;;;;;;;;;;5033859;28;20116;-84
2023/09/09 13:25:56;;;;;;;0.00;0.00;;;;;;;;;;5033712;28;20091;-82
2023/09/09 13:28:22;;;;;;;0.47;0.10;;;;;;;;;;5032077;28;20042;-83
2023/09/09 13:30:48;;;;;;;0.10;0.00;;;;;;;;;;5031991;28;20079;-83
2023/09/09 13:33:14;;;;;;;0.00;0.00;;;;;;;;;;5032491;28;20073;-83
2023/09/09 13:35:40;;;;;;;0.00;0.00;;;;;;;;;;5033286;28;20072;-83
2023/09/09 13:38:06;;;;;;;0.00;0.00;;;;;;;;;;5032076;28;20060;-83
2023/09/09 13:40:34;;;;;;;0.00;0.00;;;;;;;;;;5033591;28;20033;-83
2023/09/09 13:43:00;;;;;;;0.00;0.00;;;;;;;;;;5015785;28;20507;-82
2023/09/09 13:45:26;;;;;;;0.00;0.00;;;;;;;;;;5032121;28;20069;-82
2023/09/09 13:47:52;;;;;;;0.00;0.00;;;;;;;;;;5032103;28;20049;-83
2023/09/09 13:50:18;;;;;;;0.00;0.00;;;;;;;;;;5033242;28;20485;-83
2023/09/09 13:52:44;;;;;;;0.00;0.00;;;;;;;;;;5031887;28;20049;-83
2023/09/09 13:55:10;;;;;;;0.00;0.00;;;;;;;;;;5031830;28;20429;-83
2023/09/09 13:57:36;;;;;;;0.00;0.00;;;;;;;;;;5032571;28;20089;-84
2023/09/09 14:00:05;;;;;;;0.00;0.00;;;;;;;;;;5032045;28;20041;-82
2023/09/09 14:02:31;;;;;;;0.00;0.00;;;;;;;;;;5031572;28;20493;-83
2023/09/09 14:04:57;;;;;;;0.00;0.00;;;;;;;;;;5032963;28;20038;-83
2023/09/09 14:07:23;;;;;;;0.00;0.00;;;;;;;;;;5031518;28;20052;-83
2023/09/09 14:09:49;;;;;;;0.00;0.00;;;;;;;;;;5031627;28;20128;-83
2023/09/09 14:12:15;;;;;;;0.00;0.00;;;;;;;;;;5031480;28;20049;-83
2023/09/09 14:14:41;;;;;;;0.00;0.00;;;;;;;;;;5033066;28;20042;-83
2023/09/09 14:17:07;;;;;;;0.00;0.00;;;;;;;;;;5031265;28;20051;-83
2023/09/09 14:19:33;;;;;;;0.00;0.00;;;;;;;;;;5031605;28;20099;-83
2023/09/09 14:21:59;;;;;;;0.00;0.00;;;;;;;;;;5032772;28;20041;-83
2023/09/09 14:24:25;;;;;;;0.00;0.00;;;;;;;;;;5031447;28;20041;-83
2023/09/09 14:26:51;;;;;;;0.00;0.00;;;;;;;;;;5031372;28;20033;-83
2023/09/09 14:29:17;;;;;;;0.00;0.00;;;;;;;;;;5031159;28;20116;-83
2023/09/09 14:31:43;;;;;;;0.00;0.00;;;;;;;;;;5031257;28;20128;-83
2023/09/09 14:34:09;;;;;;;0.00;0.00;;;;;;;;;;5014878;28;20511;-83
2023/09/09 14:36:35;;;;;;;0.00;0.00;;;;;;;;;;5031198;28;20116;-83
2023/09/09 14:39:01;;;;;;;0.00;0.00;;;;;;;;;;5030363;28;20068;-83
2023/09/09 14:41:27;;;;;;;0.00;0.00;;;;;;;;;;5030888;28;20057;-82
2023/09/09 14:43:53;;;;;;;0.00;0.00;;;;;;;;;;5031014;28;20060;-83
2023/09/09 14:46:23;;;;;;;0.00;0.00;;;;;;;;;;5031285;28;20064;-82
2023/09/09 14:48:56;;;;;;;0.00;0.00;;;;;;;;;;5031080;28;20077;-83
2023/09/09 14:51:22;;;;;;;0.00;0.00;;;;;;;;;;5031071;28;20052;-83